Date,TemperatureHighF,TemperatureAvgF,TemperatureLowF,DewpointHighF,DewpointAvgF,DewpointLowF,HumidityHigh,HumidityAvg,HumidityLow,PressureMaxIn,PressureMinIn,WindSpeedMaxMPH,WindSpeedAvgMPH,GustSpeedMaxMPH,PrecipitationSumIn
2013-9-1,90,74,67,79,72,66,99,92,58,29.90,29.78,5,1,17,0.73
2013-9-2,88,76,68,79,72,68,99,89,59,29.88,29.80,7,1,8,0.00
2013-9-3,89,76,68,79,72,68,99,87,51,29.94,29.80,4,0,7,3.02
2013-9-4,86,72,-18,72,67,-18,99,84,53,30.10,29.94,7,1,7,3.02
2013-9-5,88,71,61,70,61,49,99,77,26,30.10,30.02,8,1,8,0.38
2013-9-6,103,69,59,100,61,56,98,79,40,30.18,30.09,51,2,51,0.02
2013-9-7,84,67,-2,66,60,-2,99,81,26,30.14,29.98,8,1,8,3.02
2013-9-8,88,71,59,70,63,55,99,81,34,29.99,29.91,4,1,5,0.00
2013-9-9,87,73,63,80,68,63,99,85,53,30.16,29.99,49,1,49,0.00
2013-9-10,120,75,64,100,69,63,99,84,55,30.23,30.14,49,1,49,0.45
2013-9-11,89,74,-17,73,68,-23,99,83,33,30.21,30.07,49,1,49,1.51
2013-9-12,90,76,66,75,69,66,99,84,51,30.07,29.80,8,1,49,0.00
2013-9-13,84,72,60,69,62,49,99,75,31,29.91,29.76,10,2,10,0.00
2013-9-14,78,64,54,55,51,45,94,66,32,30.15,29.90,8,2,9,0.38
2013-9-15,82,64,14,64,55,14,99,75,39,30.24,30.11,5,1,8,6.28
2013-9-16,86,71,60,68,61,56,99,75,39,30.19,30.04,8,2,10,0.00
2013-9-17,78,65,53,59,53,46,97,70,33,30.33,30.19,8,1,9,0.00
2013-9-18,76,61,47,57,49,37,99,71,25,30.31,30.17,49,1,49,1.51
2013-9-19,77,68,53,63,61,46,96,80,52,30.19,30.08,4,0,4,0.57
2013-9-20,75,65,62,74,64,61,99,98,93,30.10,29.99,11,1,4,0.11
2013-9-21,76,69,65,73,68,65,99,98,90,29.96,29.73,5,1,7,4.11
2013-9-22,78,67,6,65,60,-17,99,82,33,29.90,29.72,9,2,13,0.17
2013-9-23,72,61,11,57,53,11,99,77,45,30.06,29.94,49,2,49,0.00
2013-9-24,74,63,54,62,58,54,97,84,60,29.97,29.94,2,0,3,0.00
2013-9-25,74,61,50,67,59,50,99,90,59,29.97,29.87,49,1,49,0.38
2013-9-26,78,64,53,64,57,49,99,82,37,30.05,29.88,8,1,9,0.00
2013-9-27,75,60,50,63,54,49,99,84,49,30.19,30.04,7,1,9,0.00
2013-9-28,73,58,48,59,52,48,99,83,48,30.26,30.17,11,1,11,0.00
2013-9-29,76,59,48,61,52,47,99,81,37,30.18,30.03,7,1,8,0.38
2013-9-30,78,60,48,64,53,48,99,83,41,30.10,29.99,5,1,6,0.00